createdAt,value
2023-01-09T00:00:16.324Z,98695.53
2023-01-09T00:02:49.260Z,98694.81
2023-01-09T00:05:19.816Z,98685.19
2023-01-09T00:07:47.800Z,98675.59
2023-01-09T00:10:16.723Z,98675.59
2023-01-09T00:12:45.893Z,98666.84
2023-01-09T00:15:14.069Z,98677.50
2023-01-09T00:17:48.136Z,98668.00
2023-01-09T00:20:16.943Z,98668.91
2023-01-09T00:22:46.192Z,98658.44
2023-01-09T00:25:14.312Z,98670.59
2023-01-09T00:27:42.066Z,98664.28
2023-01-09T00:30:12.171Z,98660.66
2023-01-09T00:32:41.630Z,98666.84
2023-01-09T00:35:15.738Z,98644.25
2023-01-09T00:37:47.010Z,98657.97
2023-01-09T00:40:17.185Z,98649.78
2023-01-09T00:42:57.928Z,98639.53
2023-01-09T00:45:35.221Z,98655.31
2023-01-09T00:48:13.153Z,98653.16
2023-01-09T00:50:45.298Z,98638.47
2023-01-09T00:53:22.719Z,98648.59
2023-01-09T00:55:52.476Z,98633.25
2023-01-09T00:58:20.722Z,98637.81
2023-01-09T01:00:49.901Z,98639.50
2023-01-09T01:03:33.518Z,98645.69
2023-01-09T01:06:21.018Z,98623.81
2023-01-09T01:08:48.989Z,98634.16
2023-01-09T01:11:19.479Z,98643.03
2023-01-09T01:13:48.098Z,98646.88
2023-01-09T01:16:18.293Z,98652.22
2023-01-09T01:18:46.313Z,98641.31
2023-01-09T01:21:15.630Z,98648.28
2023-01-09T01:23:45.816Z,98649.56
2023-01-09T01:26:17.581Z,98641.97
2023-01-09T01:28:45.418Z,98647.63
2023-01-09T01:31:20.060Z,98650.94
2023-01-09T01:33:49.035Z,98650.22
2023-01-09T01:36:18.035Z,98645.28
2023-01-09T01:38:48.218Z,98655.88
2023-01-09T01:41:29.806Z,98662.25
2023-01-09T01:44:05.217Z,98668.88
2023-01-09T01:46:35.931Z,98675.06
2023-01-09T01:49:20.248Z,98662.91
2023-01-09T01:51:53.841Z,98676.34
2023-01-09T01:54:29.024Z,98665.81
2023-01-09T01:57:03.664Z,98661.53
2023-01-09T01:59:50.447Z,98661.53
2023-01-09T02:02:28.974Z,98665.03
2023-01-09T02:05:05.005Z,98676.88
2023-01-09T02:07:34.051Z,98666.00
2023-01-09T02:10:11.058Z,98668.78
2023-01-09T02:12:39.367Z,98668.88
2023-01-09T02:15:13.733Z,98656.50
2023-01-09T02:17:58.024Z,98655.53
2023-01-09T02:20:46.107Z,98650.72
2023-01-09T02:23:35.100Z,98665.16
2023-01-09T02:26:31.387Z,98664.94
2023-01-09T02:29:40.911Z,98690.09
2023-01-09T02:32:14.625Z,98693.84
2023-01-09T02:35:04.210Z,98694.47
2023-01-09T02:38:06.730Z,98683.06
2023-01-09T02:40:53.542Z,98679.75
2023-01-09T02:43:22.585Z,98662.88
2023-01-09T02:45:50.398Z,98676.53
2023-01-09T02:48:21.694Z,98686.66
2023-01-09T02:51:14.729Z,98695.50
2023-01-09T02:54:10.361Z,98697.72
2023-01-09T02:56:51.322Z,98704.94
2023-01-09T02:59:40.284Z,98710.50
2023-01-09T03:02:36.099Z,98727.47
2023-01-09T03:05:33.583Z,98738.31
2023-01-09T03:08:06.691Z,98743.09
2023-01-09T03:11:05.044Z,98754.41
2023-01-09T03:13:46.510Z,98764.22
2023-01-09T03:16:21.864Z,98771.66
2023-01-09T03:18:52.293Z,98779.09
2023-01-09T03:21:22.745Z,98774.28
2023-01-09T03:23:57.025Z,98793.78
2023-01-09T03:26:29.477Z,98782.13
2023-01-09T03:28:59.653Z,98790.09
2023-01-09T03:31:28.982Z,98804.66
2023-01-09T03:33:56.911Z,98800.28
2023-01-09T03:36:27.660Z,98802.00
2023-01-09T03:38:55.924Z,98811.16
2023-01-09T03:41:23.791Z,98805.03
2023-01-09T03:43:52.267Z,98797.75
2023-01-09T03:46:22.055Z,98830.06
2023-01-09T03:48:50.560Z,98818.19
2023-01-09T03:51:19.551Z,98838.25
2023-01-09T03:53:47.591Z,98841.88
2023-01-09T03:56:16.601Z,98854.50
2023-01-09T03:58:44.395Z,98867.94
2023-01-09T04:01:13.311Z,98881.41
2023-01-09T04:03:41.735Z,98886.00
2023-01-09T04:06:11.270Z,98890.75
2023-01-09T04:08:42.771Z,98889.97
2023-01-09T04:11:11.224Z,98895.88
2023-01-09T04:13:39.704Z,98891.88
2023-01-09T04:16:08.053Z,98894.81
2023-01-09T04:18:36.203Z,98916.69
2023-01-09T04:21:05.467Z,98910.03
2023-01-09T04:23:36.592Z,98924.75
2023-01-09T04:26:05.796Z,98922.44
2023-01-09T04:28:33.842Z,98931.47
2023-01-09T04:31:02.897Z,98945.47
2023-01-09T04:33:31.207Z,98947.06
2023-01-09T04:36:02.145Z,98955.84
2023-01-09T04:38:31.699Z,98966.38
2023-01-09T04:40:59.601Z,98941.53
2023-01-09T04:43:28.818Z,98969.53
2023-01-09T04:45:58.037Z,98980.06
2023-01-09T04:48:27.326Z,98993.63
2023-01-09T04:50:55.380Z,98993.91
2023-01-09T04:53:23.489Z,98994.75
2023-01-09T04:55:51.742Z,98994.88
2023-01-09T04:58:19.588Z,99001.03
2023-01-09T05:00:49.016Z,99009.03
2023-01-09T05:03:18.448Z,99009.28
2023-01-09T05:05:46.621Z,98991.84
2023-01-09T05:08:14.961Z,99016.41
2023-01-09T05:10:43.749Z,99011.16
2023-01-09T05:13:12.484Z,99012.97
2023-01-09T05:15:42.499Z,99020.88
2023-01-09T05:18:11.159Z,99039.50
2023-01-09T05:20:38.971Z,99027.06
2023-01-09T05:23:06.971Z,99038.28
2023-01-09T05:25:35.196Z,99035.53
2023-01-09T05:28:03.769Z,99036.75
2023-01-09T05:30:33.268Z,99043.69
2023-01-09T05:33:01.091Z,99045.41
2023-01-09T05:35:31.488Z,99050.31
2023-01-09T05:37:59.598Z,99059.41
2023-01-09T05:40:35.300Z,99053.47
2023-01-09T05:43:10.079Z,99053.03
2023-01-09T05:45:39.354Z,99069.88
2023-01-09T05:48:07.284Z,99069.09
2023-01-09T05:50:34.965Z,99082.47
2023-01-09T05:53:25.535Z,99083.69
2023-01-09T05:55:55.955Z,99082.72
2023-01-09T05:58:44.460Z,99090.81
2023-01-09T06:01:12.981Z,99092.50
2023-01-09T06:03:41.648Z,99094.13
2023-01-09T06:06:09.946Z,99096.72
2023-01-09T06:08:38.038Z,99106.50
2023-01-09T06:11:06.229Z,99106.31
2023-01-09T06:13:34.402Z,99103.66
2023-01-09T06:16:02.936Z,99110.38
2023-01-09T06:18:30.996Z,99102.19
2023-01-09T06:20:59.005Z,99104.59
2023-01-09T06:23:28.274Z,99116.53
2023-01-09T06:25:56.062Z,99099.63
2023-01-09T06:28:24.279Z,99116.19
2023-01-09T06:30:53.788Z,99111.97
2023-01-09T06:33:22.375Z,99116.28
2023-01-09T06:35:52.594Z,99117.06
2023-01-09T06:38:20.871Z,99118.50
2023-01-09T06:40:50.814Z,99137.13
2023-01-09T06:43:18.824Z,99124.00
2023-01-09T06:45:47.818Z,99116.19
2023-01-09T06:48:16.398Z,99125.13
2023-01-09T06:50:45.755Z,99129.34
2023-01-09T06:53:14.061Z,99132.06
2023-01-09T06:55:42.516Z,99118.84
2023-01-09T06:58:10.441Z,99115.44
2023-01-09T07:00:39.301Z,99115.34
2023-01-09T07:03:07.821Z,99112.84
2023-01-09T07:05:42.655Z,99115.09
2023-01-09T07:08:10.720Z,99113.88
2023-01-09T07:10:38.812Z,99107.97
2023-01-09T07:13:07.282Z,99119.47
2023-01-09T07:15:35.921Z,99107.59
2023-01-09T07:18:04.470Z,99118.06
2023-01-09T07:20:32.813Z,99134.34
2023-01-09T07:23:01.297Z,99128.44
2023-01-09T07:25:29.453Z,99119.75
2023-01-09T07:27:58.296Z,99119.06
2023-01-09T07:30:28.965Z,99128.06
2023-01-09T07:32:57.029Z,99120.00
2023-01-09T07:35:25.380Z,99109.09
2023-01-09T07:37:54.644Z,99132.38
2023-01-09T07:40:22.871Z,99142.22
2023-01-09T07:42:55.183Z,99155.16
2023-01-09T07:45:24.225Z,99154.31
2023-01-09T07:47:55.000Z,99152.59
2023-01-09T07:50:23.595Z,99162.88
2023-01-09T07:52:52.584Z,99149.53
2023-01-09T07:55:21.013Z,99154.53
2023-01-09T07:57:51.727Z,99158.38
2023-01-09T08:00:21.438Z,99144.59
2023-01-09T08:02:54.122Z,99157.63
2023-01-09T08:05:22.576Z,99166.00
2023-01-09T08:07:51.481Z,99152.88
2023-01-09T08:10:23.076Z,99155.09
2023-01-09T08:12:51.612Z,99153.28
2023-01-09T08:15:21.069Z,99154.31
2023-01-09T08:17:49.746Z,99156.28
2023-01-09T08:20:19.268Z,99155.09
2023-01-09T08:22:49.825Z,99157.56
2023-01-09T08:25:18.880Z,99154.06
2023-01-09T08:27:48.906Z,99140.63
2023-01-09T08:30:18.352Z,99141.56
2023-01-09T08:32:52.134Z,99144.34
2023-01-09T08:35:21.486Z,99129.53
2023-01-09T08:37:49.669Z,99139.38
2023-01-09T08:40:19.047Z,99141.16
2023-01-09T08:43:06.690Z,99147.50
2023-01-09T08:45:54.028Z,99150.97
2023-01-09T08:48:22.659Z,99152.69
2023-01-09T08:50:50.985Z,99151.03
2023-01-09T08:53:19.378Z,99157.81
2023-01-09T08:55:47.497Z,99161.16
2023-01-09T08:58:17.021Z,99170.56
2023-01-09T09:00:45.036Z,99173.84
2023-01-09T09:03:13.536Z,99172.88
2023-01-09T09:05:41.780Z,99174.50
2023-01-09T09:08:09.539Z,99176.31
2023-01-09T09:10:38.452Z,99176.25
2023-01-09T09:13:08.301Z,99173.47
2023-01-09T09:15:38.175Z,99175.69
2023-01-09T09:18:10.013Z,99180.25
2023-01-09T09:20:40.162Z,99168.31
2023-01-09T09:23:09.549Z,99187.38
2023-01-09T09:25:38.706Z,99190.06
2023-01-09T09:28:07.780Z,99189.00
2023-01-09T09:30:38.223Z,99176.84
2023-01-09T09:33:07.920Z,99195.03
2023-01-09T09:35:37.589Z,99193.16
2023-01-09T09:38:06.445Z,99190.50
2023-01-09T09:41:36.517Z,99190.03
2023-01-09T09:44:52.682Z,99184.88
2023-01-09T09:47:55.978Z,99195.09
2023-01-09T09:50:27.794Z,99192.47
2023-01-09T09:53:11.006Z,99194.00
2023-01-09T09:55:41.554Z,99197.16
2023-01-09T09:58:39.121Z,99188.47
2023-01-09T10:01:11.897Z,99164.16
2023-01-09T10:04:03.724Z,99192.38
2023-01-09T10:06:50.024Z,99197.53
2023-01-09T10:09:51.690Z,99197.44
2023-01-09T10:12:46.700Z,99196.22
2023-01-09T10:15:26.637Z,99205.50
2023-01-09T10:18:09.389Z,99204.09
2023-01-09T10:20:57.561Z,99201.00
2023-01-09T10:23:51.946Z,99204.03
2023-01-09T10:26:43.787Z,99204.44
2023-01-09T10:29:36.771Z,99209.53
2023-01-09T10:32:36.254Z,99191.34
2023-01-09T10:35:47.010Z,99193.00
2023-01-09T10:38:31.102Z,99191.06
2023-01-09T10:41:22.455Z,99174.63
2023-01-09T10:44:12.372Z,99172.59
2023-01-09T10:46:55.213Z,99174.34
2023-01-09T10:49:26.583Z,99173.94
2023-01-09T10:52:18.018Z,99170.88
2023-01-09T10:55:23.702Z,99170.13
2023-01-09T10:58:11.945Z,99159.47
2023-01-09T11:00:43.504Z,99168.22
2023-01-09T11:03:15.440Z,99170.44
2023-01-09T11:05:54.758Z,99176.50
2023-01-09T11:08:42.572Z,99166.69
2023-01-09T11:11:13.031Z,99161.28
2023-01-09T11:13:48.007Z,99162.59
2023-01-09T11:16:24.352Z,99164.25
2023-01-09T11:19:01.005Z,99174.13
2023-01-09T11:21:33.560Z,99165.75
2023-01-09T11:24:25.781Z,99172.03
2023-01-09T11:27:24.078Z,99180.69
2023-01-09T11:30:15.375Z,99184.41
2023-01-09T11:32:50.271Z,99191.13
2023-01-09T11:36:19.169Z,99176.44
2023-01-09T11:38:59.478Z,99177.75
2023-01-09T11:41:36.019Z,99184.63
2023-01-09T11:44:05.641Z,99192.03
2023-01-09T11:46:44.131Z,99178.97
2023-01-09T11:49:23.292Z,99189.75
2023-01-09T11:52:20.620Z,99205.22
2023-01-09T11:55:20.639Z,99203.78
2023-01-09T11:58:24.006Z,99191.56
2023-01-09T12:01:14.968Z,99201.75
2023-01-09T12:04:29.869Z,99203.47
2023-01-09T12:07:53.608Z,99205.53
2023-01-09T12:11:19.246Z,99176.19
2023-01-09T12:14:37.823Z,99179.94
2023-01-09T12:17:48.317Z,99180.84
2023-01-09T12:20:47.504Z,99172.50
2023-01-09T12:23:24.171Z,99175.63
2023-01-09T12:26:16.632Z,99181.19
2023-01-09T12:29:31.543Z,99180.16
2023-01-09T12:32:48.796Z,99175.19
2023-01-09T12:35:41.592Z,99182.13
2023-01-09T12:38:40.330Z,99174.91
2023-01-09T12:41:23.120Z,99189.16
2023-01-09T12:44:38.760Z,99195.72
2023-01-09T12:47:45.294Z,99203.25
2023-01-09T12:50:54.045Z,99206.00
2023-01-09T12:53:27.928Z,99216.06
2023-01-09T12:56:09.791Z,99217.53
2023-01-09T12:59:00.592Z,99212.94
2023-01-09T13:01:39.590Z,99216.84
2023-01-09T13:04:17.135Z,99213.91
2023-01-09T13:06:54.621Z,99212.09
2023-01-09T13:09:33.268Z,99214.94
2023-01-09T13:12:18.632Z,99209.91
2023-01-09T13:15:39.723Z,99228.97
2023-01-09T13:18:25.219Z,99213.69
2023-01-09T13:20:56.710Z,99218.53
2023-01-09T13:23:49.280Z,99226.75
2023-01-09T13:26:33.217Z,99223.22
2023-01-09T13:29:30.817Z,99221.44
2023-01-09T13:32:30.258Z,99225.25
2023-01-09T13:35:01.419Z,99230.31
2023-01-09T13:37:35.304Z,99229.66
2023-01-09T13:40:23.843Z,99232.41
2023-01-09T13:43:10.370Z,99235.44
2023-01-09T13:45:42.165Z,99239.81
2023-01-09T13:48:12.131Z,99243.31
2023-01-09T13:50:42.637Z,99252.63
2023-01-09T13:53:19.984Z,99266.72
2023-01-09T13:55:58.641Z,99265.19
2023-01-09T13:58:38.335Z,99273.09
2023-01-09T14:01:35.530Z,99271.53
2023-01-09T14:04:14.880Z,99277.81
2023-01-09T14:07:24.513Z,99280.63
2023-01-09T14:10:01.963Z,99272.75
2023-01-09T14:12:40.920Z,99269.38
2023-01-09T14:15:39.799Z,99290.03
2023-01-09T14:18:28.575Z,99292.75
2023-01-09T14:21:01.686Z,99301.44
2023-01-09T14:24:06.190Z,99316.31
2023-01-09T14:27:32.377Z,99312.25
2023-01-09T14:30:26.000Z,99327.47
2023-01-09T14:33:19.999Z,99329.38
2023-01-09T14:36:16.803Z,99337.53
2023-01-09T14:39:00.380Z,99337.88
2023-01-09T14:42:00.580Z,99344.66
2023-01-09T14:44:53.883Z,99352.34
2023-01-09T14:47:48.236Z,99356.53
2023-01-09T14:51:04.190Z,99361.09
2023-01-09T14:53:39.347Z,99368.78
2023-01-09T14:56:43.828Z,99367.69
2023-01-09T14:59:14.528Z,99382.88
2023-01-09T15:01:48.016Z,99374.19
2023-01-09T15:04:36.557Z,99364.63
2023-01-09T15:07:07.347Z,99374.41
2023-01-09T15:09:48.077Z,99390.84
2023-01-09T15:12:21.150Z,99381.03
2023-01-09T15:14:58.858Z,99401.97
2023-01-09T15:17:34.415Z,99406.50
2023-01-09T15:20:06.900Z,99409.47
2023-01-09T15:22:38.969Z,99408.94
2023-01-09T15:25:45.142Z,99405.41
2023-01-09T15:28:40.666Z,99399.47
2023-01-09T15:31:17.930Z,99412.91
2023-01-09T15:33:49.317Z,99409.53
2023-01-09T15:36:24.679Z,99400.88
2023-01-09T15:38:54.332Z,99414.09
2023-01-09T15:41:48.735Z,99423.16
2023-01-09T15:44:26.314Z,99418.28
2023-01-09T15:47:01.531Z,99422.75
2023-01-09T15:49:29.933Z,99403.81
2023-01-09T15:51:59.909Z,99425.41
2023-01-09T15:54:32.784Z,99415.09
2023-01-09T15:57:26.772Z,99434.25
2023-01-09T15:59:56.776Z,99427.53
2023-01-09T16:02:45.164Z,99438.06
2023-01-09T16:05:18.541Z,99437.44
2023-01-09T16:07:51.675Z,99448.16
2023-01-09T16:10:36.721Z,99447.31
2023-01-09T16:13:06.490Z,99432.97
2023-01-09T16:15:36.560Z,99440.72
2023-01-09T16:18:17.034Z,99461.28
2023-01-09T16:20:46.920Z,99464.03
2023-01-09T16:23:52.542Z,99447.81
2023-01-09T16:26:25.537Z,99476.38
2023-01-09T16:28:54.721Z,99479.84
2023-01-09T16:31:30.165Z,99488.28
2023-01-09T16:34:07.462Z,99489.31
2023-01-09T16:36:36.235Z,99490.81
2023-01-09T16:39:05.244Z,99486.34
2023-01-09T16:41:53.415Z,99485.72
2023-01-09T16:44:22.818Z,99505.91
2023-01-09T16:46:50.823Z,99498.88
2023-01-09T16:49:23.727Z,99485.16
2023-01-09T16:51:53.177Z,99505.19
2023-01-09T16:54:22.080Z,99497.13
2023-01-09T16:56:54.872Z,99512.81
2023-01-09T16:59:27.451Z,99521.06
2023-01-09T17:01:56.266Z,99523.72
2023-01-09T17:04:24.214Z,99526.47
2023-01-09T17:06:52.074Z,99526.78
2023-01-09T17:09:24.565Z,99534.09
2023-01-09T17:11:53.899Z,99544.03
2023-01-09T17:14:23.977Z,99539.78
2023-01-09T17:16:52.967Z,99537.72
2023-01-09T17:19:25.889Z,99536.91
2023-01-09T17:21:54.684Z,99562.56
2023-01-09T17:24:43.082Z,99556.09
2023-01-09T17:27:29.999Z,99551.06
2023-01-09T17:29:59.473Z,99548.75
2023-01-09T17:32:31.124Z,99568.59
2023-01-09T17:34:59.870Z,99565.38
2023-01-09T17:37:28.883Z,99581.97
2023-01-09T17:40:01.458Z,99583.69
2023-01-09T17:42:30.971Z,99602.25
2023-01-09T17:44:59.819Z,99595.53
2023-01-09T17:47:28.099Z,99623.69
2023-01-09T17:49:56.949Z,99625.63
2023-01-09T17:52:26.581Z,99622.88
2023-01-09T17:54:55.639Z,99615.38
2023-01-09T17:57:23.533Z,99625.88
2023-01-09T17:59:54.882Z,99639.16
2023-01-09T18:02:23.384Z,99633.22
2023-01-09T18:04:52.785Z,99647.06
2023-01-09T18:07:21.107Z,99653.22
2023-01-09T18:09:51.149Z,99667.31
2023-01-09T18:12:19.207Z,99673.53
2023-01-09T18:14:48.641Z,99645.06
2023-01-09T18:17:16.727Z,99671.03
2023-01-09T18:19:46.475Z,99674.56
2023-01-09T18:22:16.174Z,99682.63
2023-01-09T18:24:44.598Z,99694.88
2023-01-09T18:27:13.099Z,99678.19
2023-01-09T18:29:41.901Z,99694.78
2023-01-09T18:32:09.668Z,99699.31
2023-01-09T18:34:38.427Z,99706.25
2023-01-09T18:37:08.267Z,99713.19
2023-01-09T18:39:36.629Z,99715.84
2023-01-09T18:42:05.305Z,99726.56
2023-01-09T18:44:33.746Z,99704.72
2023-01-09T18:47:03.184Z,99725.34
2023-01-09T18:49:31.881Z,99742.22
2023-01-09T18:52:00.315Z,99735.25
2023-01-09T18:54:28.746Z,99744.97
2023-01-09T18:56:58.642Z,99748.47
2023-01-09T18:59:27.770Z,99751.13
2023-01-09T19:01:56.409Z,99762.44
2023-01-09T19:04:27.029Z,99765.00
2023-01-09T19:06:57.185Z,99751.44
2023-01-09T19:09:31.679Z,99784.44
2023-01-09T19:12:00.362Z,99770.50
2023-01-09T19:14:28.583Z,99779.34
2023-01-09T19:16:59.257Z,99772.50
2023-01-09T19:19:30.510Z,99793.44
2023-01-09T19:21:58.891Z,99784.63
2023-01-09T19:24:28.095Z,99788.13
2023-01-09T19:26:57.121Z,99790.88
2023-01-09T19:29:25.619Z,99789.09
2023-01-09T19:31:53.795Z,99789.19
2023-01-09T19:34:22.489Z,99816.31
2023-01-09T19:36:52.275Z,99809.13
2023-01-09T19:39:20.171Z,99804.06
2023-01-09T19:41:49.786Z,99807.34
2023-01-09T19:44:19.330Z,99807.34
2023-01-09T19:46:48.894Z,99822.09
2023-01-09T19:49:16.988Z,99799.16
2023-01-09T19:51:46.254Z,99827.09
2023-01-09T19:54:14.484Z,99821.09
2023-01-09T19:56:45.422Z,99829.75
2023-01-09T19:59:15.035Z,99832.28
2023-01-09T20:01:43.963Z,99833.03
2023-01-09T20:10:03.889Z,99843.47
2023-01-09T20:12:48.495Z,99854.78
2023-01-09T20:15:20.058Z,99851.22
2023-01-09T20:17:58.048Z,99864.28
2023-01-09T20:23:20.374Z,99863.63
2023-01-09T20:25:50.027Z,99867.91
2023-01-09T20:28:29.167Z,99875.03
2023-01-09T20:30:57.748Z,99882.91
2023-01-09T20:33:27.607Z,99882.06
2023-01-09T20:36:00.082Z,99886.34
2023-01-09T20:38:34.178Z,99881.84
2023-01-09T20:41:22.941Z,99884.63
2023-01-09T20:44:12.258Z,99884.69
2023-01-09T20:46:45.274Z,99896.97
2023-01-09T20:49:14.960Z,99876.84
2023-01-09T20:54:34.976Z,99894.31
2023-01-09T21:02:32.956Z,99911.09
2023-01-09T21:05:00.820Z,99915.47
2023-01-09T21:07:28.609Z,99916.25
2023-01-09T21:09:56.295Z,99928.63
2023-01-09T21:12:49.987Z,99928.75
2023-01-09T21:15:19.725Z,99930.75
2023-01-09T21:17:47.599Z,99929.94
2023-01-09T21:20:15.923Z,99919.44
2023-01-09T21:22:43.955Z,99930.19
2023-01-09T21:25:11.650Z,99934.72
2023-01-09T21:27:42.925Z,99939.09
2023-01-09T21:30:11.948Z,99949.09
2023-01-09T21:32:39.668Z,99949.97
2023-01-09T21:35:07.957Z,99946.50
2023-01-09T21:37:37.302Z,99956.03
2023-01-09T21:40:13.705Z,99959.59
2023-01-09T21:43:00.133Z,99956.19
2023-01-09T21:45:47.149Z,99960.13
2023-01-09T21:48:14.960Z,99966.16
2023-01-09T21:50:42.673Z,99969.81
2023-01-09T21:53:10.551Z,99982.09
2023-01-09T21:55:38.230Z,99976.28
2023-01-09T21:58:06.012Z,99980.56
2023-01-09T22:00:33.923Z,99983.34
2023-01-09T22:03:01.682Z,99994.78
2023-01-09T22:05:29.367Z,100004.47
2023-01-09T22:07:57.094Z,100001.88
2023-01-09T22:10:24.940Z,100004.53
2023-01-09T22:13:11.451Z,100016.81
2023-01-09T22:15:39.241Z,100015.25
2023-01-09T22:18:06.978Z,100019.47
2023-01-09T22:20:34.787Z,100025.03
2023-01-09T22:23:02.525Z,100031.19
2023-01-09T22:25:30.272Z,100041.00
2023-01-09T22:27:57.959Z,100037.56
2023-01-09T22:30:25.616Z,100057.88
2023-01-09T22:32:53.255Z,100045.75
2023-01-09T22:35:20.879Z,100063.59
2023-01-09T22:37:48.551Z,100075.06
2023-01-09T22:40:16.611Z,100069.84
2023-01-09T22:42:44.306Z,100077.81
2023-01-09T22:45:12.216Z,100079.69
2023-01-09T22:47:39.920Z,100094.44
2023-01-09T22:50:09.477Z,100086.41
2023-01-09T22:52:37.187Z,100094.38
2023-01-09T22:55:05.886Z,100096.16
2023-01-09T22:57:33.516Z,100085.81
2023-01-09T23:00:01.343Z,100095.47
2023-01-09T23:02:29.133Z,100107.66
2023-01-09T23:04:58.414Z,100115.63
2023-01-09T23:07:26.891Z,100107.72
2023-01-09T23:10:00.448Z,100102.44
2023-01-09T23:12:28.188Z,100110.38
2023-01-09T23:14:55.822Z,100119.16
2023-01-09T23:17:23.474Z,100135.97
2023-01-09T23:19:51.639Z,100126.16
2023-01-09T23:22:19.458Z,100117.34
2023-01-09T23:24:47.184Z,100124.72
2023-01-09T23:27:15.031Z,100127.44
2023-01-09T23:29:42.859Z,100135.34
2023-01-09T23:32:12.077Z,100144.22
2023-01-09T23:34:39.710Z,100139.88
2023-01-09T23:37:09.445Z,100153.09
2023-01-09T23:39:37.306Z,100150.50
2023-01-09T23:42:24.006Z,100160.19
2023-01-09T23:44:51.656Z,100159.41
2023-01-09T23:47:19.351Z,100162.97
2023-01-09T23:49:47.096Z,100178.84
2023-01-09T23:52:14.969Z,100176.28
2023-01-09T23:54:42.833Z,100173.66
2023-01-09T23:57:11.709Z,100182.44
2023-01-09T23:59:39.306Z,100182.47
